Time;durP1;ratioP1;P1;durP2;ratioP2;P2;SDS_P1;SDS_P2;PMS_P1;PMS_P2;Temp;Humidity;BMP_temperature;BMP_pressure;BME280_temperature;BME280_humidity;BME280_pressure;Samples;Min_cycle;Max_cycle;Signal;HPM_P1;HPM_P2
2023/05/06 03:00:52;;;;;;;21.00;19.03;;;13.00;99.90;;;;;;5773100;23;20290;-74
2023/05/06 03:03:18;;;;;;;21.83;15.93;;;13.00;99.90;;;;;;4974944;28;20213;-74
2023/05/06 03:05:44;;;;;;;16.17;14.47;;;13.00;99.90;;;;;;4975015;28;20595;-74
2023/05/06 03:08:10;;;;;;;18.67;16.90;;;13.00;99.90;;;;;;4979694;28;20243;-74
2023/05/06 03:10:36;;;;;;;23.33;15.87;;;13.00;99.90;;;;;;4989008;28;20197;-74
2023/05/06 03:13:01;;;;;;;28.43;25.80;;;13.10;99.90;;;;;;4972797;28;20184;-74
2023/05/06 03:15:28;;;;;;;40.13;25.13;;;13.10;99.90;;;;;;4995695;23;20244;-75
2023/05/06 03:17:54;;;;;;;23.17;21.27;;;13.20;99.90;;;;;;4977682;28;20425;-76
2023/05/06 03:20:20;;;;;;;23.93;21.90;;;13.20;99.90;;;;;;4993668;28;20560;-75
2023/05/06 03:22:46;;;;;;;25.33;23.13;;;13.20;99.90;;;;;;4995193;28;20247;-75
2023/05/06 03:25:12;;;;;;;26.63;24.10;;;13.20;99.90;;;;;;4984636;28;20699;-75
2023/05/06 03:27:37;;;;;;;25.40;23.10;;;13.20;99.90;;;;;;4974303;28;20192;-76
2023/05/06 03:30:03;;;;;;;36.90;34.40;;;13.20;99.90;;;;;;4965548;28;20181;-76
2023/05/06 03:32:29;;;;;;;33.93;31.40;;;13.20;99.90;;;;;;4961901;28;20192;-76
2023/05/06 03:34:55;;;;;;;32.17;29.63;;;13.20;99.90;;;;;;4972867;28;20201;-75
2023/05/06 03:37:21;;;;;;;30.70;28.33;;;13.20;99.90;;;;;;4973651;28;20185;-75
2023/05/06 03:39:47;;;;;;;33.33;30.97;;;13.20;99.90;;;;;;4972711;28;20180;-75
2023/05/06 03:42:13;;;;;;;32.73;30.27;;;13.20;99.90;;;;;;4972365;28;20291;-75
2023/05/06 03:44:38;;;;;;;32.83;29.90;;;13.20;99.90;;;;;;4972422;28;20760;-74
2023/05/06 03:47:04;;;;;;;27.13;24.77;;;13.20;99.90;;;;;;4972446;28;20271;-75
2023/05/06 03:49:30;;;;;;;28.60;25.83;;;13.20;99.90;;;;;;4974138;28;20207;-74
2023/05/06 03:51:56;;;;;;;34.83;31.63;;;13.20;99.90;;;;;;4973022;28;20185;-75
2023/05/06 03:54:22;;;;;;;39.73;36.07;;;13.20;99.90;;;;;;4973481;28;20177;-75
2023/05/06 03:56:47;;;;;;;49.80;45.30;;;13.20;99.90;;;;;;4974571;28;20189;-75
2023/05/06 03:59:13;;;;;;;150.20;28.17;;;13.20;99.90;;;;;;4972910;28;20173;-74
2023/05/06 04:01:39;;;;;;;52.20;36.40;;;13.30;99.90;;;;;;4978085;28;20189;-74
2023/05/06 04:04:05;;;;;;;41.17;36.90;;;13.30;99.90;;;;;;4977746;28;20178;-74
2023/05/06 04:06:30;;;;;;;89.70;36.30;;;13.30;99.90;;;;;;4973173;28;20243;-75
2023/05/06 04:08:56;;;;;;;75.30;39.77;;;13.30;99.90;;;;;;4972882;28;20181;-75
2023/05/06 04:11:22;;;;;;;112.20;52.00;;;13.30;99.90;;;;;;4972911;28;20229;-75
2023/05/06 04:13:48;;;;;;;53.70;41.83;;;13.30;99.90;;;;;;4954744;28;20185;-75
2023/05/06 04:16:13;;;;;;;54.07;31.87;;;13.40;99.90;;;;;;4953533;28;20217;-75
2023/05/06 04:18:39;;;;;;;69.63;30.10;;;13.40;99.90;;;;;;4951910;29;20276;-75
2023/05/06 04:21:05;;;;;;;51.23;29.87;;;13.50;99.90;;;;;;4952991;28;20185;-76
2023/05/06 04:23:31;;;;;;;85.23;45.03;;;13.40;99.90;;;;;;4952782;28;20698;-75
2023/05/06 04:25:58;;;;;;;53.90;38.80;;;13.50;99.90;;;;;;4953282;29;20295;-77
2023/05/06 04:28:23;;;;;;;68.20;38.63;;;13.50;99.90;;;;;;4953580;28;20552;-75
2023/05/06 04:30:49;;;;;;;64.60;33.07;;;13.50;99.90;;;;;;4954419;28;20268;-76
2023/05/06 04:33:15;;;;;;;53.23;31.17;;;13.50;99.90;;;;;;4952558;29;20182;-76
2023/05/06 04:35:52;;;;;;;103.00;29.60;;;13.60;99.90;;;;;;4967255;28;20580;-75
2023/05/06 04:38:20;;;;;;;54.73;25.30;;;13.60;99.90;;;;;;4971087;28;20191;-75
2023/05/06 04:40:46;;;;;;;48.50;28.97;;;13.60;99.90;;;;;;4971332;28;20672;-75
2023/05/06 04:43:13;;;;;;;92.13;35.70;;;13.60;99.90;;;;;;4972763;28;20227;-74
2023/05/06 04:45:48;;;;;;;87.43;36.13;;;13.60;99.90;;;;;;4973419;28;20343;-75
2023/05/06 04:48:21;;;;;;;93.60;43.10;;;13.60;99.90;;;;;;4963936;28;20300;-75
2023/05/06 04:50:48;;;;;;;153.07;48.33;;;13.70;99.90;;;;;;4952511;28;20193;-75
2023/05/06 04:53:14;;;;;;;192.13;47.10;;;13.70;99.90;;;;;;4951853;28;20182;-76
2023/05/06 04:55:40;;;;;;;127.77;49.77;;;13.60;99.90;;;;;;4946870;28;20208;-75
2023/05/06 04:58:06;;;;;;;107.77;49.63;;;13.60;99.90;;;;;;4953590;28;20248;-76
2023/05/06 05:00:33;;;;;;;115.97;43.03;;;13.60;99.90;;;;;;4952764;28;20653;-76
2023/05/06 05:02:58;;;;;;;70.57;44.63;;;13.70;99.90;;;;;;4971148;28;20276;-76
2023/05/06 05:05:27;;;;;;;117.17;49.83;;;13.70;99.90;;;;;;4971987;28;20232;-76
2023/05/06 05:07:53;;;;;;;140.73;83.50;;;13.80;99.90;;;;;;4970296;28;20668;-76
2023/05/06 05:10:19;;;;;;;123.73;80.63;;;13.70;99.90;;;;;;4970957;28;20181;-76
2023/05/06 05:12:45;;;;;;;151.50;116.37;;;13.80;99.90;;;;;;4958493;28;20714;-75
2023/05/06 05:15:11;;;;;;;108.40;98.67;;;13.80;99.90;;;;;;4961324;28;20243;-75
2023/05/06 05:17:37;;;;;;;130.17;116.90;;;13.90;99.90;;;;;;4970461;28;20200;-75
2023/05/06 05:20:04;;;;;;;96.50;85.00;;;13.90;99.90;;;;;;4970924;28;20216;-76
2023/05/06 05:22:31;;;;;;;103.03;92.53;;;13.90;99.90;;;;;;4971413;28;20212;-75
2023/05/06 05:24:57;;;;;;;106.93;96.20;;;14.00;99.90;;;;;;4971158;28;20201;-76
2023/05/06 05:27:22;;;;;;;70.73;56.07;;;14.10;99.90;;;;;;4972289;28;20188;-76
2023/05/06 05:29:49;;;;;;;54.13;48.47;;;14.20;99.90;;;;;;4974055;28;20185;-76
2023/05/06 05:32:15;;;;;;;120.77;112.43;;;14.40;99.90;;;;;;4974433;28;20235;-76
2023/05/06 05:34:41;;;;;;;161.10;150.77;;;14.40;99.90;;;;;;4970576;28;20680;-76
2023/05/06 05:37:07;;;;;;;62.43;55.70;;;14.60;99.90;;;;;;4970539;28;20185;-76
2023/05/06 05:39:32;;;;;;;27.83;25.40;;;14.60;99.90;;;;;;4971474;28;20645;-76
2023/05/06 05:41:58;;;;;;;30.07;18.77;;;14.70;99.90;;;;;;4961133;28;20261;-76
2023/05/06 05:44:24;;;;;;;27.23;24.03;;;14.70;99.90;;;;;;4952042;28;20577;-76
2023/05/06 05:46:50;;;;;;;25.13;22.83;;;14.90;99.90;;;;;;4952280;28;20178;-76
2023/05/06 05:49:16;;;;;;;29.77;26.70;;;15.00;99.90;;;;;;4952344;28;20193;-75
2023/05/06 05:51:42;;;;;;;21.77;19.97;;;15.10;99.90;;;;;;4952317;28;20192;-76
2023/05/06 05:54:09;;;;;;;39.57;37.07;;;15.20;99.90;;;;;;4950914;29;20213;-76
2023/05/06 05:56:35;;;;;;;36.63;34.30;;;15.50;99.90;;;;;;4970806;28;20196;-76
2023/05/06 05:59:01;;;;;;;15.23;14.03;;;15.70;99.90;;;;;;4970485;28;20717;-75
2023/05/06 06:01:27;;;;;;;17.13;16.03;;;15.90;99.90;;;;;;4970487;28;20201;-75
2023/05/06 06:03:53;;;;;;;11.20;10.27;;;16.10;99.90;;;;;;4971774;28;20379;-77
2023/05/06 06:06:19;;;;;;;33.17;31.17;;;16.30;99.90;;;;;;4971259;28;20201;-73
2023/05/06 06:08:45;;;;;;;31.63;29.80;;;16.40;99.90;;;;;;4954634;28;20265;-74
2023/05/06 06:11:11;;;;;;;23.27;21.77;;;16.60;99.90;;;;;;4963582;28;20272;-76
2023/05/06 06:13:37;;;;;;;29.60;27.83;;;17.10;99.90;;;;;;4970269;28;20247;-75
2023/05/06 06:16:03;;;;;;;49.57;46.77;;;17.30;99.90;;;;;;4975983;28;20292;-75
2023/05/06 06:18:29;;;;;;;60.23;57.10;;;17.30;99.90;;;;;;4975127;28;20189;-75
2023/05/06 06:20:55;;;;;;;69.10;65.43;;;17.20;99.90;;;;;;4975503;28;20261;-75
2023/05/06 06:23:21;;;;;;;68.20;64.63;;;17.00;99.90;;;;;;4955253;28;20227;-75
2023/05/06 06:25:46;;;;;;;74.40;70.47;;;16.90;99.90;;;;;;4955906;28;20202;-75
2023/05/06 06:28:12;;;;;;;58.97;55.77;;;16.90;99.90;;;;;;4955553;28;20181;-76
2023/05/06 06:30:38;;;;;;;35.57;33.17;;;17.00;99.90;;;;;;4956114;28;20174;-75
2023/05/06 06:33:04;;;;;;;33.73;31.43;;;17.20;99.90;;;;;;4956248;28;20216;-75
2023/05/06 06:35:30;;;;;;;59.03;55.83;;;17.30;99.90;;;;;;4962284;28;20576;-75
2023/05/06 06:37:55;;;;;;;24.73;23.10;;;17.60;99.90;;;;;;4973273;28;20192;-75
2023/05/06 06:40:21;;;;;;;19.47;18.17;;;18.00;99.90;;;;;;4976725;28;20195;-81
2023/05/06 06:42:47;;;;;;;22.67;20.92;;;18.20;99.90;;;;;;4976934;28;20297;-78
2023/05/06 06:45:14;;;;;;;19.23;17.93;;;18.00;99.90;;;;;;4976955;28;20193;-73
2023/05/06 06:47:40;;;;;;;21.60;20.10;;;17.80;99.90;;;;;;4974835;28;20535;-73
2023/05/06 06:50:07;;;;;;;20.63;19.20;;;17.60;99.90;;;;;;4972830;28;20280;-72
2023/05/06 06:52:35;;;;;;;21.77;20.27;;;17.50;99.90;;;;;;4961236;28;20241;-73
2023/05/06 06:55:02;;;;;;;22.90;21.27;;;17.40;99.90;;;;;;4954426;28;20201;-72
2023/05/06 06:57:28;;;;;;;18.30;16.90;;;17.10;99.90;;;;;;4955546;29;20866;-72
2023/05/06 06:59:54;;;;;;;38.73;36.17;;;17.10;99.90;;;;;;4954668;28;20273;-73
2023/05/06 07:02:21;;;;;;;56.40;52.90;;;17.20;99.90;;;;;;4962662;28;20291;-71
2023/05/06 07:04:46;;;;;;;28.00;26.13;;;17.20;99.90;;;;;;4975059;28;20208;-73
2023/05/06 07:07:12;;;;;;;25.83;23.43;;;17.30;99.90;;;;;;4973586;28;20177;-71
2023/05/06 07:09:38;;;;;;;26.13;24.23;;;17.50;99.90;;;;;;4973784;28;20188;-72
2023/05/06 07:12:05;;;;;;;22.67;21.23;;;17.60;99.90;;;;;;4975105;28;20672;-72
2023/05/06 07:14:31;;;;;;;11.17;10.23;;;18.00;99.90;;;;;;4975006;28;20193;-72
2023/05/06 07:16:58;;;;;;;12.43;11.23;;;18.30;99.90;;;;;;4956700;28;20189;-72
2023/05/06 07:19:23;;;;;;;10.55;9.75;;;18.40;99.90;;;;;;4955960;28;20196;-72
2023/05/06 07:21:49;;;;;;;10.38;9.50;;;18.50;99.90;;;;;;4955603;29;20564;-72
2023/05/06 07:24:15;;;;;;;11.87;10.63;;;18.60;99.90;;;;;;4955866;29;20692;-73
2023/05/06 07:26:41;;;;;;;12.18;11.13;;;18.90;99.90;;;;;;4954712;28;20212;-72
2023/05/06 07:29:06;;;;;;;17.45;16.30;;;19.30;99.90;;;;;;4962777;28;20176;-72
2023/05/06 07:31:32;;;;;;;13.98;12.88;;;19.50;99.90;;;;;;4973384;28;20221;-73
2023/05/06 07:33:58;;;;;;;10.38;9.55;;;19.90;99.90;;;;;;4974774;28;20268;-72
2023/05/06 07:36:25;;;;;;;40.10;38.05;;;20.90;99.90;;;;;;4974175;28;20220;-72
2023/05/06 07:38:52;;;;;;;17.05;15.88;;;21.40;99.90;;;;;;4973980;28;20204;-72
2023/05/06 07:41:18;;;;;;;22.70;21.27;;;21.10;99.90;;;;;;4974400;28;20243;-74
2023/05/06 07:43:44;;;;;;;19.38;18.30;;;20.80;99.90;;;;;;4956483;28;20301;-72
2023/05/06 07:46:10;;;;;;;25.45;23.88;;;20.30;99.90;;;;;;4949910;28;20233;-73
2023/05/06 07:48:36;;;;;;;35.05;32.95;;;20.20;99.90;;;;;;4943358;28;20222;-72
2023/05/06 07:51:02;;;;;;;149.82;142.60;;;20.40;99.90;;;;;;4935589;29;20187;-72
2023/05/06 07:53:28;;;;;;;50.08;47.33;;;20.60;99.90;;;;;;4947830;29;20184;-72
2023/05/06 07:56:00;;;;;;;16.48;15.18;;;21.60;99.90;;;;;;4955459;28;20205;-72
2023/05/06 07:58:30;;;;;;;31.10;29.02;;;22.20;99.90;;;;;;4954246;28;20662;-73
2023/05/06 08:00:56;;;;;;;25.50;23.52;;;22.10;99.90;;;;;;4953271;28;20190;-73
2023/05/06 08:03:22;;;;;;;26.40;24.73;;;21.60;99.90;;;;;;4954573;28;20264;-72
2023/05/06 08:05:51;;;;;;;25.95;24.55;;;20.80;99.90;;;;;;4954117;28;20213;-73
2023/05/06 08:08:17;;;;;;;37.83;35.70;;;20.30;99.90;;;;;;4964927;28;20638;-73
2023/05/06 08:10:43;;;;;;;32.15;30.33;;;20.00;99.90;;;;;;4955028;28;20177;-72
2023/05/06 08:13:10;;;;;;;41.13;38.97;;;20.00;99.90;;;;;;4952498;29;20192;-74
2023/05/06 08:15:36;;;;;;;32.35;30.58;;;19.90;99.90;;;;;;4952953;28;20280;-74
2023/05/06 08:18:02;;;;;;;32.65;30.77;;;20.00;99.90;;;;;;4951915;28;20249;-73
2023/05/06 08:20:28;;;;;;;30.98;29.08;;;20.00;99.90;;;;;;4953374;28;20201;-71
2023/05/06 08:22:54;;;;;;;22.33;21.10;;;20.90;99.90;;;;;;4947692;28;20314;-71
2023/05/06 08:25:20;;;;;;;12.25;11.45;;;21.60;99.90;;;;;;4938315;28;20249;-71
2023/05/06 08:27:45;;;;;;;17.83;16.67;;;21.80;99.90;;;;;;4971724;28;20223;-72
2023/05/06 08:30:12;;;;;;;27.30;25.83;;;22.10;99.90;;;;;;4957470;28;20609;-74
2023/05/06 08:32:38;;;;;;;39.00;35.80;;;22.80;99.90;;;;;;4952860;28;20182;-73
2023/05/06 08:35:05;;;;;;;14.90;14.07;;;23.70;99.90;;;;;;4961847;28;20216;-72
2023/05/06 08:37:31;;;;;;;20.88;19.50;;;24.30;99.90;;;;;;4972475;28;20185;-71
2023/05/06 08:39:57;;;;;;;18.42;17.33;;;24.10;99.90;;;;;;4973404;28;20189;-71
2023/05/06 08:42:24;;;;;;;15.35;14.35;;;24.00;99.90;;;;;;4957250;28;20206;-71
2023/05/06 08:44:54;;;;;;;18.40;17.40;;;24.40;99.90;;;;;;4953671;28;20820;-70
2023/05/06 08:47:21;;;;;;;8.23;7.00;;;25.00;99.90;;;;;;4953409;28;20257;-70
2023/05/06 08:49:47;;;;;;;6.32;5.93;;;25.20;99.90;;;;;;4952784;28;20714;-70
2023/05/06 08:52:13;;;;;;;70.55;7.25;;;25.20;99.90;;;;;;4952040;28;20269;-71
2023/05/06 08:54:41;;;;;;;5.93;5.32;;;24.30;99.90;;;;;;4952759;28;20580;-70
2023/05/06 08:57:11;;;;;;;8.60;8.00;;;24.00;99.90;;;;;;4952474;29;20287;-70
2023/05/06 08:59:37;;;;;;;30.00;28.38;;;23.40;99.90;;;;;;4943978;28;20628;-70
2023/05/06 09:02:03;;;;;;;13.82;12.82;;;23.30;99.90;;;;;;4953648;28;20185;-71
2023/05/06 09:04:30;;;;;;;10.80;10.20;;;23.70;99.90;;;;;;4953530;28;20185;-70
2023/05/06 09:06:57;;;;;;;7.60;7.20;;;24.10;99.90;;;;;;4952053;28;20253;-71
2023/05/06 09:09:24;;;;;;;10.45;9.77;;;24.70;99.90;;;;;;4949462;28;20239;-70
2023/05/06 09:11:55;;;;;;;11.00;10.00;;;25.30;99.90;;;;;;4946752;28;20186;-70
2023/05/06 09:14:22;;;;;;;5.80;5.30;;;25.40;99.90;;;;;;4950774;28;20200;-71
2023/05/06 09:16:50;;;;;;;4.00;3.75;;;25.40;99.90;;;;;;4994719;23;20252;-72
2023/05/06 09:19:17;;;;;;;5.70;5.40;;;25.50;99.90;;;;;;4990434;28;20678;-72
2023/05/06 09:21:47;;;;;;;6.60;6.10;;;26.40;99.90;;;;;;4991185;28;20180;-73
2023/05/06 09:24:14;;;;;;;6.90;6.50;;;26.50;99.90;;;;;;4983848;28;20221;-73
2023/05/06 09:26:43;;;;;;;5.50;5.20;;;26.70;99.90;;;;;;4975497;28;20197;-73
2023/05/06 09:29:09;;;;;;;4.15;3.85;;;26.10;99.90;;;;;;4972040;28;20185;-73
2023/05/06 09:31:43;;;;;;;12.18;11.52;;;25.70;99.90;;;;;;4988475;28;20173;-73
2023/05/06 09:34:09;;;;;;;6.85;6.47;;;25.60;98.40;;;;;;4984250;28;20192;-75
2023/05/06 09:36:36;;;;;;;8.50;7.57;;;25.00;98.70;;;;;;4970986;28;20575;-74
2023/05/06 09:39:03;;;;;;;5.10;4.63;;;24.50;98.00;;;;;;4971679;28;20307;-73
2023/05/06 09:41:29;;;;;;;4.65;4.35;;;24.30;98.80;;;;;;4972304;28;20235;-73
2023/05/06 09:43:56;;;;;;;3.95;3.75;;;24.20;98.00;;;;;;4988470;28;20302;-73
2023/05/06 09:46:23;;;;;;;4.22;3.95;;;23.90;99.50;;;;;;4990553;28;20204;-75
2023/05/06 09:48:54;;;;;;;7.32;6.90;;;23.70;98.90;;;;;;4990691;28;20188;-75
2023/05/06 09:51:20;;;;;;;7.45;7.05;;;23.70;99.90;;;;;;4996470;28;20281;-75
2023/05/06 09:53:47;;;;;;;4.72;4.43;;;23.40;99.80;;;;;;4997979;28;20322;-73
2023/05/06 09:56:14;;;;;;;4.40;4.10;;;23.00;99.90;;;;;;4996877;28;20691;-74
2023/05/06 09:58:40;;;;;;;5.63;5.28;;;23.00;99.90;;;;;;4995920;28;20282;-73
2023/05/06 10:01:07;;;;;;;4.88;4.60;;;22.90;99.90;;;;;;4986749;28;20189;-73
2023/05/06 10:03:34;;;;;;;8.55;7.82;;;22.80;99.90;;;;;;4977242;28;20219;-73
2023/05/06 10:06:01;;;;;;;4.82;4.45;;;23.00;99.90;;;;;;4978317;28;20264;-73
2023/05/06 10:08:28;;;;;;;4.75;4.45;;;24.00;99.90;;;;;;4977937;28;20180;-74
2023/05/06 10:10:54;;;;;;;5.53;5.10;;;24.90;99.90;;;;;;4992978;28;20204;-73
2023/05/06 10:13:23;;;;;;;3.67;3.40;;;25.80;96.50;;;;;;4978182;28;20181;-73
2023/05/06 10:15:49;;;;;;;5.60;4.47;;;25.90;95.30;;;;;;4988863;28;20216;-72
2023/05/06 10:18:16;;;;;;;22.30;21.13;;;25.70;95.90;;;;;;4998009;28;20223;-72
2023/05/06 10:20:43;;;;;;;24.70;23.40;;;26.20;93.80;;;;;;5000419;28;20552;-73
2023/05/06 10:23:15;;;;;;;22.85;21.20;;;26.10;94.50;;;;;;4999163;28;20232;-72
2023/05/06 10:25:43;;;;;;;84.25;80.20;;;26.50;94.60;;;;;;4996367;28;20243;-73
2023/05/06 10:28:11;;;;;;;106.40;101.32;;;26.60;91.90;;;;;;4976786;28;20653;-72
2023/05/06 10:30:39;;;;;;;123.10;117.20;;;26.70;92.40;;;;;;4977113;28;20542;-72
2023/05/06 10:33:07;;;;;;;104.22;99.20;;;26.70;93.00;;;;;;4977997;28;20189;-72
2023/05/06 10:35:39;;;;;;;104.63;99.63;;;26.20;92.40;;;;;;4976446;28;20251;-72
2023/05/06 10:38:11;;;;;;;90.50;85.97;;;25.90;92.70;;;;;;4976945;28;20189;-72
2023/05/06 10:40:37;;;;;;;60.35;57.40;;;25.50;91.70;;;;;;4978564;28;20550;-72
2023/05/06 10:43:31;;;;;;;9.00;8.50;;;24.70;95.20;;;;;;4982316;28;20204;-71
2023/05/06 10:46:14;;;;;;;4.32;4.03;;;23.90;96.40;;;;;;4997794;28;20200;-71
2023/05/06 10:49:05;;;;;;;5.30;5.00;;;23.50;98.10;;;;;;4997469;28;20270;-71
2023/05/06 10:51:35;;;;;;;4.82;4.53;;;23.80;98.60;;;;;;4997773;28;20184;-72
2023/05/06 10:54:02;;;;;;;6.63;5.03;;;24.80;97.70;;;;;;4997809;28;20194;-72
2023/05/06 10:56:30;;;;;;;8.82;8.35;;;25.50;95.00;;;;;;4992118;28;20625;-71
2023/05/06 10:58:59;;;;;;;36.67;34.88;;;26.00;94.60;;;;;;4977958;28;20193;-72
2023/05/06 11:01:26;;;;;;;68.78;65.38;;;26.40;93.40;;;;;;4975322;28;20247;-72
2023/05/06 11:03:53;;;;;;;106.25;101.18;;;26.40;93.90;;;;;;4975082;28;20212;-72
2023/05/06 11:06:40;;;;;;;69.15;65.70;;;27.20;91.20;;;;;;4975039;28;20225;-72
2023/05/06 11:09:18;;;;;;;52.35;49.83;;;27.20;89.70;;;;;;4974625;28;20649;-72
2023/05/06 11:11:47;;;;;;;3.88;3.75;;;28.40;88.80;;;;;;4975243;28;20309;-72
2023/05/06 11:14:18;;;;;;;3.80;3.60;;;29.30;80.40;;;;;;4975039;28;20243;-72
2023/05/06 11:16:51;;;;;;;4.20;3.85;;;29.50;81.50;;;;;;4974797;28;20360;-72
2023/05/06 11:19:25;;;;;;;4.57;4.13;;;29.50;78.70;;;;;;4975139;28;20219;-72
2023/05/06 11:21:58;;;;;;;3.80;3.60;;;29.10;78.50;;;;;;4974891;28;20280;-72
2023/05/06 11:24:28;;;;;;;7.28;6.80;;;29.20;75.30;;;;;;4986669;28;20180;-72
2023/05/06 11:26:58;;;;;;;10.82;10.30;;;29.20;74.30;;;;;;4993867;28;20208;-72
2023/05/06 11:29:25;;;;;;;17.38;16.52;;;29.10;73.30;;;;;;4994133;28;20262;-73
2023/05/06 11:31:52;;;;;;;10.88;10.32;;;29.00;71.60;;;;;;4993326;28;20543;-71
2023/05/06 11:34:27;;;;;;;5.22;4.90;;;28.70;73.20;;;;;;4992917;28;20187;-73
2023/05/06 11:36:57;;;;;;;5.28;4.90;;;28.70;75.30;;;;;;4987997;28;20774;-71
2023/05/06 11:39:29;;;;;;;11.93;10.73;;;28.70;74.70;;;;;;4974554;28;20226;-71
2023/05/06 11:42:02;;;;;;;8.52;7.72;;;28.30;77.50;;;;;;4973362;28;20189;-71
2023/05/06 11:44:33;;;;;;;4.00;3.70;;;28.50;75.60;;;;;;4973172;28;20663;-71
2023/05/06 11:47:01;;;;;;;9.00;8.30;;;28.70;76.70;;;;;;4974112;28;20248;-71
2023/05/06 11:49:27;;;;;;;8.85;8.45;;;29.40;74.50;;;;;;4973656;28;20257;-71
2023/05/06 11:51:56;;;;;;;9.05;8.52;;;30.00;72.10;;;;;;4992178;28;20637;-71
2023/05/06 11:54:24;;;;;;;9.18;8.80;;;30.00;71.00;;;;;;4992350;28;20215;-71
2023/05/06 11:56:52;;;;;;;58.40;55.53;;;30.20;70.30;;;;;;4993777;28;20290;-71
2023/05/06 11:59:26;;;;;;;61.97;58.88;;;30.50;66.60;;;;;;4993196;28;20210;-71
2023/05/06 12:01:52;;;;;;;54.13;51.53;;;30.40;64.70;;;;;;4993865;28;20188;-73
2023/05/06 12:04:18;;;;;;;33.17;31.65;;;30.10;64.50;;;;;;4981622;28;20227;-70
2023/05/06 12:06:45;;;;;;;55.15;52.45;;;29.80;66.90;;;;;;4974140;28;20676;-73
2023/05/06 12:09:11;;;;;;;19.05;18.17;;;30.10;64.50;;;;;;4981234;28;20188;-71
2023/05/06 12:11:39;;;;;;;12.00;11.45;;;29.70;63.60;;;;;;4984806;28;20216;-71
2023/05/06 12:14:07;;;;;;;10.02;9.50;;;29.20;65.20;;;;;;4976040;28;20177;-71
2023/05/06 12:16:34;;;;;;;25.55;24.40;;;29.90;65.60;;;;;;4974294;28;20217;-71
2023/05/06 12:19:01;;;;;;;12.60;12.05;;;29.90;62.60;;;;;;4992799;28;20184;-73
2023/05/06 12:21:28;;;;;;;12.32;11.73;;;29.30;65.10;;;;;;4993286;28;20655;-72
2023/05/06 12:23:59;;;;;;;32.58;30.80;;;29.60;64.70;;;;;;4993260;28;20215;-72
2023/05/06 12:26:26;;;;;;;42.90;40.70;;;30.30;61.40;;;;;;4993011;28;20585;-72
2023/05/06 12:29:11;;;;;;;39.65;37.78;;;31.00;60.30;;;;;;4991662;28;20173;-72
2023/05/06 12:31:37;;;;;;;39.38;37.45;;;31.00;59.70;;;;;;4977557;28;20641;-72
2023/05/06 12:34:04;;;;;;;37.92;35.72;;;31.70;59.40;;;;;;4972523;28;20188;-72
2023/05/06 12:36:31;;;;;;;29.05;27.27;;;31.80;58.80;;;;;;4973391;28;20205;-72
2023/05/06 12:39:00;;;;;;;42.17;40.10;;;32.00;59.00;;;;;;4971984;28;20185;-72
2023/05/06 12:41:40;;;;;;;33.10;31.42;;;32.10;58.20;;;;;;4973507;28;20185;-72
2023/05/06 12:44:33;;;;;;;31.38;29.85;;;31.30;59.00;;;;;;4979845;28;20680;-72
2023/05/06 12:47:20;;;;;;;36.00;34.08;;;31.00;59.90;;;;;;4992295;28;20224;-72
2023/05/06 12:50:00;;;;;;;42.20;40.13;;;31.70;58.60;;;;;;4992708;28;20184;-72
2023/05/06 12:52:28;;;;;;;35.60;33.78;;;31.10;58.30;;;;;;4992683;28;20216;-72
2023/05/06 12:54:54;;;;;;;44.15;41.75;;;30.40;61.30;;;;;;4992655;28;20307;-72
2023/05/06 12:57:20;;;;;;;48.83;46.33;;;29.70;61.40;;;;;;4986682;28;20204;-72
2023/05/06 12:59:47;;;;;;;58.10;55.25;;;29.40;63.00;;;;;;4973082;28;20184;-72
2023/05/06 13:02:13;;;;;;;54.00;51.15;;;29.30;61.20;;;;;;4971930;28;20561;-72
2023/05/06 13:04:40;;;;;;;57.03;54.10;;;29.60;61.90;;;;;;4971854;28;20207;-72
2023/05/06 13:07:06;;;;;;;56.05;53.42;;;30.10;61.30;;;;;;4971443;28;20203;-72
2023/05/06 13:09:31;;;;;;;55.83;53.13;;;30.30;62.60;;;;;;4974483;28;20181;-72
2023/05/06 13:11:58;;;;;;;69.18;65.78;;;30.20;59.60;;;;;;4990043;28;20263;-72
2023/05/06 13:14:23;;;;;;;67.15;63.92;;;30.20;58.90;;;;;;4992235;28;20188;-72
2023/05/06 13:16:49;;;;;;;39.95;38.00;;;30.30;59.60;;;;;;4990850;28;20296;-72
2023/05/06 13:19:15;;;;;;;46.78;44.53;;;29.80;59.80;;;;;;4992189;28;20648;-72
2023/05/06 13:21:41;;;;;;;60.53;57.67;;;28.70;59.70;;;;;;4992149;28;20648;-72
2023/05/06 13:24:07;;;;;;;42.15;40.20;;;28.00;60.50;;;;;;4986189;28;20185;-72
2023/05/06 13:26:34;;;;;;;50.60;48.08;;;27.80;63.60;;;;;;4972470;28;20209;-72
2023/05/06 13:29:00;;;;;;;40.28;38.38;;;28.00;60.00;;;;;;4972033;28;20279;-77
2023/05/06 13:31:27;;;;;;;47.22;44.80;;;28.50;58.80;;;;;;4972394;28;20242;-72
2023/05/06 13:33:55;;;;;;;33.75;32.17;;;28.90;60.10;;;;;;4972423;28;20212;-72
2023/05/06 13:36:22;;;;;;;35.45;33.70;;;29.20;58.30;;;;;;4971368;28;20616;-72
2023/05/06 13:38:48;;;;;;;41.22;39.33;;;29.80;58.50;;;;;;4987487;28;20645;-73
2023/05/06 13:41:14;;;;;;;38.33;36.42;;;29.90;58.20;;;;;;4986820;28;20207;-73
2023/05/06 13:43:40;;;;;;;48.13;45.85;;;29.90;58.60;;;;;;4991681;28;20188;-73
2023/05/06 13:46:07;;;;;;;28.73;27.35;;;30.40;58.00;;;;;;4991516;28;20219;-74
2023/05/06 13:48:33;;;;;;;35.55;33.92;;;30.60;57.40;;;;;;4990555;28;20222;-71
2023/05/06 13:50:59;;;;;;;38.25;36.42;;;31.70;55.20;;;;;;4989530;28;20274;-71
2023/05/06 13:53:25;;;;;;;49.17;46.75;;;32.60;55.20;;;;;;4991082;28;20392;-71
2023/05/06 13:55:52;;;;;;;61.88;58.83;;;32.60;48.70;;;;;;4994709;28;20211;-71
2023/05/06 13:58:17;;;;;;;42.65;40.65;;;32.10;51.50;;;;;;5005551;28;20187;-71
2023/05/06 14:00:43;;;;;;;40.63;38.72;;;32.30;48.70;;;;;;4991615;28;20705;-71
2023/05/06 14:03:09;;;;;;;29.95;28.60;;;32.60;47.20;;;;;;4990437;28;20226;-71
2023/05/06 14:05:34;;;;;;;52.75;50.17;;;32.30;46.80;;;;;;4976489;28;20177;-71
2023/05/06 14:08:00;;;;;;;51.97;49.55;;;31.60;49.50;;;;;;4971751;28;20231;-71
2023/05/06 14:10:26;;;;;;;39.53;37.67;;;31.50;48.70;;;;;;4971875;28;20180;-71
2023/05/06 14:12:52;;;;;;;41.08;39.17;;;31.70;46.90;;;;;;4972058;28;20213;-71
2023/05/06 14:15:17;;;;;;;54.95;52.35;;;30.90;47.70;;;;;;4972279;28;20204;-71
2023/05/06 14:17:43;;;;;;;21.30;20.40;;;31.50;48.60;;;;;;4975936;28;20215;-71
2023/05/06 14:20:09;;;;;;;32.40;30.83;;;32.30;44.00;;;;;;4991101;28;20192;-71
2023/05/06 14:22:36;;;;;;;30.75;29.33;;;31.70;46.80;;;;;;4991280;28;20212;-71
2023/05/06 14:25:02;;;;;;;30.52;29.13;;;32.00;44.10;;;;;;4991216;28;20192;-71
2023/05/06 14:27:28;;;;;;;31.48;29.98;;;32.00;46.10;;;;;;4990925;28;20200;-71
2023/05/06 14:29:53;;;;;;;31.27;29.88;;;32.50;44.70;;;;;;4991396;28;20191;-71
2023/05/06 14:32:19;;;;;;;47.05;44.90;;;32.60;46.70;;;;;;4977280;28;20531;-71
2023/05/06 14:34:45;;;;;;;22.38;21.35;;;32.40;47.00;;;;;;4971918;28;20186;-71
2023/05/06 14:37:11;;;;;;;9.82;9.43;;;32.70;44.40;;;;;;4975521;28;20590;-71
2023/05/06 14:39:36;;;;;;;9.68;9.13;;;33.10;43.40;;;;;;4976189;28;20181;-71
2023/05/06 14:42:02;;;;;;;7.72;7.43;;;33.10;42.40;;;;;;4976114;28;20232;-71
2023/05/06 14:44:28;;;;;;;11.90;11.40;;;33.10;42.80;;;;;;4979165;28;20671;-71
2023/05/06 14:46:54;;;;;;;13.18;12.68;;;32.00;44.20;;;;;;4994222;28;20204;-71
2023/05/06 14:49:20;;;;;;;15.50;14.80;;;32.30;44.80;;;;;;4993731;28;20184;-71
2023/05/06 14:51:48;;;;;;;21.98;20.98;;;32.30;44.80;;;;;;4994926;28;20721;-71
2023/05/06 14:54:17;;;;;;;27.20;26.00;;;32.50;46.30;;;;;;4993497;28;20212;-71
2023/05/06 14:56:48;;;;;;;16.52;15.82;;;32.30;44.90;;;;;;4994748;28;20255;-71
2023/05/06 14:59:14;;;;;;;14.93;14.25;;;32.00;44.60;;;;;;4978328;28;20181;-71
2023/05/06 15:01:40;;;;;;;28.25;26.85;;;31.50;44.40;;;;;;4975260;28;20184;-71
2023/05/06 15:04:08;;;;;;;28.75;27.38;;;31.20;45.90;;;;;;4975180;28;20557;-71
2023/05/06 15:06:35;;;;;;;59.28;56.47;;;31.00;44.70;;;;;;4973755;28;20232;-71
2023/05/06 15:09:01;;;;;;;60.90;58.03;;;30.80;48.10;;;;;;4974682;28;20189;-71
2023/05/06 15:11:27;;;;;;;69.43;66.18;;;31.00;49.10;;;;;;4980200;28;20641;-71
2023/05/06 15:13:52;;;;;;;56.58;53.92;;;30.60;47.70;;;;;;4993330;28;20263;-71
2023/05/06 15:16:18;;;;;;;50.42;48.05;;;30.10;49.40;;;;;;5011079;23;20233;-70
2023/05/06 15:18:44;;;;;;;62.72;59.63;;;29.80;49.40;;;;;;4974266;28;20657;-69
2023/05/06 15:21:12;;;;;;;41.13;39.15;;;29.90;49.90;;;;;;4974851;28;20177;-72
2023/05/06 15:23:38;;;;;;;69.75;66.53;;;30.30;47.20;;;;;;4974780;28;20689;-72
2023/05/06 15:26:04;;;;;;;61.83;58.90;;;30.10;48.90;;;;;;4984694;28;20201;-72
2023/05/06 15:28:30;;;;;;;65.68;62.55;;;30.40;49.00;;;;;;4974227;28;20196;-71
2023/05/06 15:30:56;;;;;;;72.10;68.70;;;30.40;48.90;;;;;;4974640;28;20565;-70